Atlanta, Georgia
Traffic Map
Current Weather Conditions
Atlanta, Georgia
Overcast Moderate Rain
Overcast
12°
Feels Like: 12°
Wind Chill: 12° Ceiling: 3000
Heat Index: 12° Visibility: 5mi
Dew Point: 10° Wind: 12mph
Humidity: 89% Direction: 170° (S)
Pressure: 29.95in Gusts: 0mph
Raw Report DataKATL 012152Z 17010KT 5SM RA BR BKN030 BKN045 OVC070 12/10 A2995 RMK AO2 SLP145 P0005 T01170100 $
Traffic Incident Summary
Active as of:
Severity:
Category:
InformationThere was an issue retrieving the traffic information for this location. Please try a different location or try again shortly.
Advertisements
Track Severe Weather on mobile